sensor_id;sensor_type;location;lat;lon;timestamp;temperature;humidity
40638;DHT22;26336;44.696;10.622;2022-11-14T00:01:39;12.30;99.90
40638;DHT22;26336;44.696;10.622;2022-11-14T00:05:01;12.40;99.90
40638;DHT22;26336;44.696;10.622;2022-11-14T00:08:23;12.40;99.90
40638;DHT22;26336;44.696;10.622;2022-11-14T00:11:49;12.20;99.90
40638;DHT22;26336;44.696;10.622;2022-11-14T00:15:11;12.00;99.90
40638;DHT22;26336;44.696;10.622;2022-11-14T00:18:34;11.80;99.90
40638;DHT22;26336;44.696;10.622;2022-11-14T00:21:57;11.80;99.90
40638;DHT22;26336;44.696;10.622;2022-11-14T00:25:20;11.90;99.90
40638;DHT22;26336;44.696;10.622;2022-11-14T00:28:43;12.00;99.90
40638;DHT22;26336;44.696;10.622;2022-11-14T00:32:06;12.00;99.90
40638;DHT22;26336;44.696;10.622;2022-11-14T00:35:29;12.00;99.90
40638;DHT22;26336;44.696;10.622;2022-11-14T00:38:52;12.10;99.90
40638;DHT22;26336;44.696;10.622;2022-11-14T00:42:15;12.10;99.90
40638;DHT22;26336;44.696;10.622;2022-11-14T00:45:38;12.10;99.90
40638;DHT22;26336;44.696;10.622;2022-11-14T00:49:00;12.10;99.90
40638;DHT22;26336;44.696;10.622;2022-11-14T00:52:26;12.10;99.90
40638;DHT22;26336;44.696;10.622;2022-11-14T00:55:48;12.10;99.90
40638;DHT22;26336;44.696;10.622;2022-11-14T00:59:11;12.10;99.90
40638;DHT22;26336;44.696;10.622;2022-11-14T01:02:33;12.20;99.90
40638;DHT22;26336;44.696;10.622;2022-11-14T01:05:56;12.20;99.90
40638;DHT22;26336;44.696;10.622;2022-11-14T01:09:18;12.20;99.90
40638;DHT22;26336;44.696;10.622;2022-11-14T01:12:41;12.20;99.90
40638;DHT22;26336;44.696;10.622;2022-11-14T01:16:04;12.20;99.90
40638;DHT22;26336;44.696;10.622;2022-11-14T01:19:27;12.20;99.90
40638;DHT22;26336;44.696;10.622;2022-11-14T01:22:49;12.30;99.90
40638;DHT22;26336;44.696;10.622;2022-11-14T01:26:13;12.30;99.90
40638;DHT22;26336;44.696;10.622;2022-11-14T01:29:35;12.30;99.90
40638;DHT22;26336;44.696;10.622;2022-11-14T01:32:58;12.30;99.90
40638;DHT22;26336;44.696;10.622;2022-11-14T01:36:21;12.30;99.90
40638;DHT22;26336;44.696;10.622;2022-11-14T01:39:43;12.30;99.90
40638;DHT22;26336;44.696;10.622;2022-11-14T01:46:37;12.30;99.90
40638;DHT22;26336;44.696;10.622;2022-11-14T01:50:01;12.30;99.90
40638;DHT22;26336;44.696;10.622;2022-11-14T01:53:27;12.30;99.90
40638;DHT22;26336;44.696;10.622;2022-11-14T01:56:54;12.30;99.90
40638;DHT22;26336;44.696;10.622;2022-11-14T02:00:18;12.10;99.90
40638;DHT22;26336;44.696;10.622;2022-11-14T02:03:41;12.10;99.90
40638;DHT22;26336;44.696;10.622;2022-11-14T02:07:04;11.90;99.90
40638;DHT22;26336;44.696;10.622;2022-11-14T02:10:27;11.90;99.90
40638;DHT22;26336;44.696;10.622;2022-11-14T02:13:49;11.80;99.90
40638;DHT22;26336;44.696;10.622;2022-11-14T02:17:13;11.70;99.90
40638;DHT22;26336;44.696;10.622;2022-11-14T02:20:37;11.60;99.90
40638;DHT22;26336;44.696;10.622;2022-11-14T02:24:07;11.40;99.90
40638;DHT22;26336;44.696;10.622;2022-11-14T02:27:30;11.30;99.90
40638;DHT22;26336;44.696;10.622;2022-11-14T02:30:53;11.20;99.90
40638;DHT22;26336;44.696;10.622;2022-11-14T02:34:16;11.20;99.90
40638;DHT22;26336;44.696;10.622;2022-11-14T02:37:41;11.10;99.90
40638;DHT22;26336;44.696;10.622;2022-11-14T02:41:03;11.20;99.90
40638;DHT22;26336;44.696;10.622;2022-11-14T02:44:25;11.30;99.90
40638;DHT22;26336;44.696;10.622;2022-11-14T02:47:48;11.20;99.90
40638;DHT22;26336;44.696;10.622;2022-11-14T02:51:10;11.20;99.90
40638;DHT22;26336;44.696;10.622;2022-11-14T02:54:33;11.10;99.90
40638;DHT22;26336;44.696;10.622;2022-11-14T02:57:55;11.00;99.90
40638;DHT22;26336;44.696;10.622;2022-11-14T03:01:18;10.90;99.90
40638;DHT22;26336;44.696;10.622;2022-11-14T03:04:40;10.90;99.90
40638;DHT22;26336;44.696;10.622;2022-11-14T03:08:02;10.80;99.90
40638;DHT22;26336;44.696;10.622;2022-11-14T03:11:25;10.80;99.90
40638;DHT22;26336;44.696;10.622;2022-11-14T03:14:48;10.90;99.90
40638;DHT22;26336;44.696;10.622;2022-11-14T03:18:10;10.90;99.90
40638;DHT22;26336;44.696;10.622;2022-11-14T03:21:33;10.90;99.90
40638;DHT22;26336;44.696;10.622;2022-11-14T03:24:56;10.80;99.90
40638;DHT22;26336;44.696;10.622;2022-11-14T03:28:18;10.80;99.90
40638;DHT22;26336;44.696;10.622;2022-11-14T03:31:41;10.90;99.90
40638;DHT22;26336;44.696;10.622;2022-11-14T03:35:04;10.90;99.90
40638;DHT22;26336;44.696;10.622;2022-11-14T03:38:26;10.80;99.90
40638;DHT22;26336;44.696;10.622;2022-11-14T03:41:49;10.80;99.90
40638;DHT22;26336;44.696;10.622;2022-11-14T03:45:11;10.80;99.90
40638;DHT22;26336;44.696;10.622;2022-11-14T03:48:34;10.90;99.90
40638;DHT22;26336;44.696;10.622;2022-11-14T03:51:56;11.00;99.90
40638;DHT22;26336;44.696;10.622;2022-11-14T03:55:19;11.00;99.90
40638;DHT22;26336;44.696;10.622;2022-11-14T03:58:41;10.90;99.90
40638;DHT22;26336;44.696;10.622;2022-11-14T04:02:03;10.90;99.90
40638;DHT22;26336;44.696;10.622;2022-11-14T04:05:25;10.90;99.90
40638;DHT22;26336;44.696;10.622;2022-11-14T04:08:48;10.80;99.90
40638;DHT22;26336;44.696;10.622;2022-11-14T04:12:10;10.80;99.90
40638;DHT22;26336;44.696;10.622;2022-11-14T04:15:33;10.80;99.90
40638;DHT22;26336;44.696;10.622;2022-11-14T04:18:55;10.80;99.90
40638;DHT22;26336;44.696;10.622;2022-11-14T04:22:17;10.70;99.90
40638;DHT22;26336;44.696;10.622;2022-11-14T04:25:41;10.70;99.90
40638;DHT22;26336;44.696;10.622;2022-11-14T04:29:04;10.70;99.90
40638;DHT22;26336;44.696;10.622;2022-11-14T04:32:26;10.80;99.90
40638;DHT22;26336;44.696;10.622;2022-11-14T04:35:49;10.80;99.90
40638;DHT22;26336;44.696;10.622;2022-11-14T04:39:11;10.80;99.90
40638;DHT22;26336;44.696;10.622;2022-11-14T04:42:33;10.90;99.90
40638;DHT22;26336;44.696;10.622;2022-11-14T04:45:56;10.90;99.90
40638;DHT22;26336;44.696;10.622;2022-11-14T04:49:19;10.90;99.90
40638;DHT22;26336;44.696;10.622;2022-11-14T04:52:41;10.90;99.90
40638;DHT22;26336;44.696;10.622;2022-11-14T04:56:03;10.80;99.90
40638;DHT22;26336;44.696;10.622;2022-11-14T04:59:26;10.80;99.90
40638;DHT22;26336;44.696;10.622;2022-11-14T05:02:49;10.80;99.90
40638;DHT22;26336;44.696;10.622;2022-11-14T05:06:15;10.80;99.90
40638;DHT22;26336;44.696;10.622;2022-11-14T05:09:37;10.80;99.90
40638;DHT22;26336;44.696;10.622;2022-11-14T05:13:00;10.80;99.90
40638;DHT22;26336;44.696;10.622;2022-11-14T05:16:22;10.80;99.90
40638;DHT22;26336;44.696;10.622;2022-11-14T05:19:45;10.80;99.90
40638;DHT22;26336;44.696;10.622;2022-11-14T05:23:12;10.80;99.90
40638;DHT22;26336;44.696;10.622;2022-11-14T05:26:40;10.80;99.90
40638;DHT22;26336;44.696;10.622;2022-11-14T05:30:02;10.80;99.90
40638;DHT22;26336;44.696;10.622;2022-11-14T05:33:24;10.90;99.90
40638;DHT22;26336;44.696;10.622;2022-11-14T05:36:47;10.90;99.90
40638;DHT22;26336;44.696;10.622;2022-11-14T05:40:09;10.90;99.90
40638;DHT22;26336;44.696;10.622;2022-11-14T05:43:32;10.90;99.90
40638;DHT22;26336;44.696;10.622;2022-11-14T05:46:55;10.90;99.90
40638;DHT22;26336;44.696;10.622;2022-11-14T05:50:17;10.90;99.90
40638;DHT22;26336;44.696;10.622;2022-11-14T05:53:43;10.90;99.90
40638;DHT22;26336;44.696;10.622;2022-11-14T05:57:06;10.90;99.90
40638;DHT22;26336;44.696;10.622;2022-11-14T06:00:28;10.80;99.90
40638;DHT22;26336;44.696;10.622;2022-11-14T06:03:50;10.80;99.90
40638;DHT22;26336;44.696;10.622;2022-11-14T06:07:12;10.80;99.90
40638;DHT22;26336;44.696;10.622;2022-11-14T06:10:35;10.80;99.90
40638;DHT22;26336;44.696;10.622;2022-11-14T06:13:58;10.80;99.90
40638;DHT22;26336;44.696;10.622;2022-11-14T06:17:20;10.80;99.90
40638;DHT22;26336;44.696;10.622;2022-11-14T06:20:42;10.80;99.90
40638;DHT22;26336;44.696;10.622;2022-11-14T06:24:05;10.80;99.90
40638;DHT22;26336;44.696;10.622;2022-11-14T06:27:27;10.80;99.90
40638;DHT22;26336;44.696;10.622;2022-11-14T06:30:50;10.80;99.90
40638;DHT22;26336;44.696;10.622;2022-11-14T06:34:12;10.80;99.90
40638;DHT22;26336;44.696;10.622;2022-11-14T06:37:35;10.80;99.90
40638;DHT22;26336;44.696;10.622;2022-11-14T06:44:24;10.80;99.90
40638;DHT22;26336;44.696;10.622;2022-11-14T06:47:46;10.80;99.90
40638;DHT22;26336;44.696;10.622;2022-11-14T06:51:10;10.80;99.90
40638;DHT22;26336;44.696;10.622;2022-11-14T06:54:37;10.90;99.90
40638;DHT22;26336;44.696;10.622;2022-11-14T06:57:59;10.80;99.90
40638;DHT22;26336;44.696;10.622;2022-11-14T07:01:23;10.80;99.90
40638;DHT22;26336;44.696;10.622;2022-11-14T07:04:52;10.90;99.90
40638;DHT22;26336;44.696;10.622;2022-11-14T07:08:14;10.90;99.90
40638;DHT22;26336;44.696;10.622;2022-11-14T07:11:38;10.90;99.90
40638;DHT22;26336;44.696;10.622;2022-11-14T07:15:00;10.90;99.90
40638;DHT22;26336;44.696;10.622;2022-11-14T07:18:23;10.90;99.90
40638;DHT22;26336;44.696;10.622;2022-11-14T07:21:45;10.90;99.90
40638;DHT22;26336;44.696;10.622;2022-11-14T07:25:08;10.90;99.90
40638;DHT22;26336;44.696;10.622;2022-11-14T07:28:30;10.80;99.90
40638;DHT22;26336;44.696;10.622;2022-11-14T07:31:53;10.80;99.90
40638;DHT22;26336;44.696;10.622;2022-11-14T07:35:15;10.90;99.90
40638;DHT22;26336;44.696;10.622;2022-11-14T07:38:38;11.10;99.90
40638;DHT22;26336;44.696;10.622;2022-11-14T07:42:01;11.10;99.90
40638;DHT22;26336;44.696;10.622;2022-11-14T07:45:23;11.20;99.90
40638;DHT22;26336;44.696;10.622;2022-11-14T07:48:46;11.20;99.90
40638;DHT22;26336;44.696;10.622;2022-11-14T07:52:08;11.40;99.90
40638;DHT22;26336;44.696;10.622;2022-11-14T07:55:31;11.50;99.90
40638;DHT22;26336;44.696;10.622;2022-11-14T07:58:53;11.60;99.90
40638;DHT22;26336;44.696;10.622;2022-11-14T08:02:16;11.70;99.90
40638;DHT22;26336;44.696;10.622;2022-11-14T08:05:38;11.80;99.90
40638;DHT22;26336;44.696;10.622;2022-11-14T08:09:01;11.80;99.90
40638;DHT22;26336;44.696;10.622;2022-11-14T08:12:23;11.90;99.90
40638;DHT22;26336;44.696;10.622;2022-11-14T08:15:46;12.00;99.90
40638;DHT22;26336;44.696;10.622;2022-11-14T08:19:08;12.10;99.90
40638;DHT22;26336;44.696;10.622;2022-11-14T08:22:31;12.20;99.90
40638;DHT22;26336;44.696;10.622;2022-11-14T08:25:53;12.20;99.90
40638;DHT22;26336;44.696;10.622;2022-11-14T08:29:15;12.20;99.90
40638;DHT22;26336;44.696;10.622;2022-11-14T08:32:38;12.20;99.90
40638;DHT22;26336;44.696;10.622;2022-11-14T08:36:01;12.20;99.90
40638;DHT22;26336;44.696;10.622;2022-11-14T08:39:23;12.20;99.90
40638;DHT22;26336;44.696;10.622;2022-11-14T08:42:45;12.20;99.90
40638;DHT22;26336;44.696;10.622;2022-11-14T08:46:08;12.20;99.90
40638;DHT22;26336;44.696;10.622;2022-11-14T08:49:30;12.10;99.90
40638;DHT22;26336;44.696;10.622;2022-11-14T08:52:53;11.90;99.90
40638;DHT22;26336;44.696;10.622;2022-11-14T08:56:15;11.80;99.90
40638;DHT22;26336;44.696;10.622;2022-11-14T08:59:38;11.80;99.90
40638;DHT22;26336;44.696;10.622;2022-11-14T09:03:00;11.80;99.90
40638;DHT22;26336;44.696;10.622;2022-11-14T09:06:23;11.80;99.90
40638;DHT22;26336;44.696;10.622;2022-11-14T09:09:45;11.80;99.90
40638;DHT22;26336;44.696;10.622;2022-11-14T09:13:07;11.90;99.90
40638;DHT22;26336;44.696;10.622;2022-11-14T09:16:30;12.00;99.90
40638;DHT22;26336;44.696;10.622;2022-11-14T09:19:52;12.00;99.90
40638;DHT22;26336;44.696;10.622;2022-11-14T09:23:15;12.00;99.90
40638;DHT22;26336;44.696;10.622;2022-11-14T09:26:37;11.90;99.90
40638;DHT22;26336;44.696;10.622;2022-11-14T09:29:59;11.90;99.90
40638;DHT22;26336;44.696;10.622;2022-11-14T09:33:22;11.90;99.90
40638;DHT22;26336;44.696;10.622;2022-11-14T09:36:44;11.90;99.90
40638;DHT22;26336;44.696;10.622;2022-11-14T09:40:09;11.90;99.90
40638;DHT22;26336;44.696;10.622;2022-11-14T09:47:07;12.00;99.90
40638;DHT22;26336;44.696;10.622;2022-11-14T09:50:36;12.10;99.90
40638;DHT22;26336;44.696;10.622;2022-11-14T09:57:39;12.30;99.90
40638;DHT22;26336;44.696;10.622;2022-11-14T10:01:04;12.20;99.90
40638;DHT22;26336;44.696;10.622;2022-11-14T10:11:17;12.20;99.90
40638;DHT22;26336;44.696;10.622;2022-11-14T10:25:20;12.60;99.90
40638;DHT22;26336;44.696;10.622;2022-11-14T10:35:55;12.70;99.90
40638;DHT22;26336;44.696;10.622;2022-11-14T10:43:16;12.70;99.90
40638;DHT22;26336;44.696;10.622;2022-11-14T10:46:40;12.80;99.90
40638;DHT22;26336;44.696;10.622;2022-11-14T10:50:32;12.80;99.90
40638;DHT22;26336;44.696;10.622;2022-11-14T10:57:29;13.00;99.90
40638;DHT22;26336;44.696;10.622;2022-11-14T11:00:52;13.00;99.90
40638;DHT22;26336;44.696;10.622;2022-11-14T11:07:44;13.10;99.90
40638;DHT22;26336;44.696;10.622;2022-11-14T11:11:25;13.20;99.90
40638;DHT22;26336;44.696;10.622;2022-11-14T11:15:12;13.20;99.90
40638;DHT22;26336;44.696;10.622;2022-11-14T11:18:35;13.20;99.90
40638;DHT22;26336;44.696;10.622;2022-11-14T11:21:57;13.20;99.90
40638;DHT22;26336;44.696;10.622;2022-11-14T11:25:24;13.20;99.90
40638;DHT22;26336;44.696;10.622;2022-11-14T11:29:33;13.30;99.90
40638;DHT22;26336;44.696;10.622;2022-11-14T11:32:29;13.20;99.90
40638;DHT22;26336;44.696;10.622;2022-11-14T11:35:54;13.20;99.90
40638;DHT22;26336;44.696;10.622;2022-11-14T11:39:22;13.20;99.90
40638;DHT22;26336;44.696;10.622;2022-11-14T11:42:56;13.30;99.90
40638;DHT22;26336;44.696;10.622;2022-11-14T11:46:31;13.30;99.90
40638;DHT22;26336;44.696;10.622;2022-11-14T11:49:56;13.30;99.90
40638;DHT22;26336;44.696;10.622;2022-11-14T11:53:30;13.40;99.90
40638;DHT22;26336;44.696;10.622;2022-11-14T11:56:55;13.40;99.90
40638;DHT22;26336;44.696;10.622;2022-11-14T12:00:20;13.40;99.90
40638;DHT22;26336;44.696;10.622;2022-11-14T12:03:49;13.50;99.90
40638;DHT22;26336;44.696;10.622;2022-11-14T12:07:18;13.50;99.90
40638;DHT22;26336;44.696;10.622;2022-11-14T12:10:42;13.50;99.90
40638;DHT22;26336;44.696;10.622;2022-11-14T12:31:53;13.60;99.90
40638;DHT22;26336;44.696;10.622;2022-11-14T12:38:47;13.60;99.90
40638;DHT22;26336;44.696;10.622;2022-11-14T12:42:10;13.60;99.90
40638;DHT22;26336;44.696;10.622;2022-11-14T12:49:02;13.70;99.90
40638;DHT22;26336;44.696;10.622;2022-11-14T12:52:46;13.70;99.90
40638;DHT22;26336;44.696;10.622;2022-11-14T12:59:45;13.80;99.90
40638;DHT22;26336;44.696;10.622;2022-11-14T13:03:19;13.70;99.90
40638;DHT22;26336;44.696;10.622;2022-11-14T13:10:58;13.80;99.90
40638;DHT22;26336;44.696;10.622;2022-11-14T13:14:13;13.80;99.90
40638;DHT22;26336;44.696;10.622;2022-11-14T13:18:02;13.80;99.90
40638;DHT22;26336;44.696;10.622;2022-11-14T13:25:25;13.90;99.90
40638;DHT22;26336;44.696;10.622;2022-11-14T13:28:49;13.90;99.90
40638;DHT22;26336;44.696;10.622;2022-11-14T13:32:11;13.90;99.90
40638;DHT22;26336;44.696;10.622;2022-11-14T13:42:28;13.90;99.90
40638;DHT22;26336;44.696;10.622;2022-11-14T13:52:56;13.90;99.90
40638;DHT22;26336;44.696;10.622;2022-11-14T13:59:54;13.90;99.90
40638;DHT22;26336;44.696;10.622;2022-11-14T14:06:54;13.90;99.90
40638;DHT22;26336;44.696;10.622;2022-11-14T14:10:26;13.90;99.90
40638;DHT22;26336;44.696;10.622;2022-11-14T14:17:28;13.90;99.90
40638;DHT22;26336;44.696;10.622;2022-11-14T14:31:46;14.00;99.90
40638;DHT22;26336;44.696;10.622;2022-11-14T14:35:27;14.00;99.90
40638;DHT22;26336;44.696;10.622;2022-11-14T14:39:14;14.00;99.90
40638;DHT22;26336;44.696;10.622;2022-11-14T14:42:39;14.00;99.90
40638;DHT22;26336;44.696;10.622;2022-11-14T14:46:01;14.00;99.90
40638;DHT22;26336;44.696;10.622;2022-11-14T14:49:29;14.00;99.90
40638;DHT22;26336;44.696;10.622;2022-11-14T14:52:58;14.00;99.90
40638;DHT22;26336;44.696;10.622;2022-11-14T14:56:22;14.00;99.90
40638;DHT22;26336;44.696;10.622;2022-11-14T14:59:57;13.90;99.90
40638;DHT22;26336;44.696;10.622;2022-11-14T15:03:20;13.90;99.90
40638;DHT22;26336;44.696;10.622;2022-11-14T15:06:44;13.90;99.90
40638;DHT22;26336;44.696;10.622;2022-11-14T15:10:17;13.90;99.90
40638;DHT22;26336;44.696;10.622;2022-11-14T15:13:41;13.90;99.90
40638;DHT22;26336;44.696;10.622;2022-11-14T15:17:04;13.80;99.90
40638;DHT22;26336;44.696;10.622;2022-11-14T15:20:28;13.80;99.90
40638;DHT22;26336;44.696;10.622;2022-11-14T15:23:57;13.80;99.90
40638;DHT22;26336;44.696;10.622;2022-11-14T15:27:20;13.80;99.90
40638;DHT22;26336;44.696;10.622;2022-11-14T15:30:53;13.80;99.90
40638;DHT22;26336;44.696;10.622;2022-11-14T15:34:33;13.70;99.90
40638;DHT22;26336;44.696;10.622;2022-11-14T15:38:39;13.70;99.90
40638;DHT22;26336;44.696;10.622;2022-11-14T15:41:46;13.50;99.90
40638;DHT22;26336;44.696;10.622;2022-11-14T15:45:21;13.40;99.90
40638;DHT22;26336;44.696;10.622;2022-11-14T15:48:43;13.40;99.90
40638;DHT22;26336;44.696;10.622;2022-11-14T15:52:12;13.40;99.90
40638;DHT22;26336;44.696;10.622;2022-11-14T15:55:38;13.20;99.90
40638;DHT22;26336;44.696;10.622;2022-11-14T15:59:00;13.20;99.90
40638;DHT22;26336;44.696;10.622;2022-11-14T16:02:29;13.20;99.90
40638;DHT22;26336;44.696;10.622;2022-11-14T16:12:37;13.00;99.90
40638;DHT22;26336;44.696;10.622;2022-11-14T16:16:00;13.00;99.90
40638;DHT22;26336;44.696;10.622;2022-11-14T16:19:27;13.00;99.90
40638;DHT22;26336;44.696;10.622;2022-11-14T16:22:49;13.00;99.90
40638;DHT22;26336;44.696;10.622;2022-11-14T16:26:14;12.90;99.90
40638;DHT22;26336;44.696;10.622;2022-11-14T16:29:36;12.80;99.90
40638;DHT22;26336;44.696;10.622;2022-11-14T16:32:59;12.80;99.90
40638;DHT22;26336;44.696;10.622;2022-11-14T16:36:22;12.70;99.90
40638;DHT22;26336;44.696;10.622;2022-11-14T16:39:44;12.70;99.90
40638;DHT22;26336;44.696;10.622;2022-11-14T16:43:07;12.60;99.90
40638;DHT22;26336;44.696;10.622;2022-11-14T16:46:32;12.60;99.90
40638;DHT22;26336;44.696;10.622;2022-11-14T16:49:55;12.60;99.90
40638;DHT22;26336;44.696;10.622;2022-11-14T16:53:17;12.60;99.90
40638;DHT22;26336;44.696;10.622;2022-11-14T16:56:40;12.60;99.90
40638;DHT22;26336;44.696;10.622;2022-11-14T17:00:06;12.60;99.90
40638;DHT22;26336;44.696;10.622;2022-11-14T17:03:30;12.60;99.90
40638;DHT22;26336;44.696;10.622;2022-11-14T17:06:52;12.60;99.90
40638;DHT22;26336;44.696;10.622;2022-11-14T17:10:14;12.60;99.90
40638;DHT22;26336;44.696;10.622;2022-11-14T17:13:37;12.50;99.90
40638;DHT22;26336;44.696;10.622;2022-11-14T17:16:59;12.50;99.90
40638;DHT22;26336;44.696;10.622;2022-11-14T17:20:22;12.50;99.90
40638;DHT22;26336;44.696;10.622;2022-11-14T17:23:44;12.50;99.90
40638;DHT22;26336;44.696;10.622;2022-11-14T17:27:07;12.50;99.90
40638;DHT22;26336;44.696;10.622;2022-11-14T17:30:30;12.40;99.90
40638;DHT22;26336;44.696;10.622;2022-11-14T17:33:53;12.20;99.90
40638;DHT22;26336;44.696;10.622;2022-11-14T17:37:16;12.20;99.90
40638;DHT22;26336;44.696;10.622;2022-11-14T17:40:38;12.30;99.90
40638;DHT22;26336;44.696;10.622;2022-11-14T17:44:01;12.30;99.90
40638;DHT22;26336;44.696;10.622;2022-11-14T17:47:25;12.30;99.90
40638;DHT22;26336;44.696;10.622;2022-11-14T17:50:48;12.30;99.90
40638;DHT22;26336;44.696;10.622;2022-11-14T17:54:11;12.30;99.90
40638;DHT22;26336;44.696;10.622;2022-11-14T17:57:33;12.40;99.90
40638;DHT22;26336;44.696;10.622;2022-11-14T18:00:57;12.40;99.90
40638;DHT22;26336;44.696;10.622;2022-11-14T18:04:20;12.40;99.90
40638;DHT22;26336;44.696;10.622;2022-11-14T18:07:43;12.40;99.90
40638;DHT22;26336;44.696;10.622;2022-11-14T18:11:09;12.30;99.90
40638;DHT22;26336;44.696;10.622;2022-11-14T18:14:32;12.30;99.90
40638;DHT22;26336;44.696;10.622;2022-11-14T18:17:56;12.30;99.90
40638;DHT22;26336;44.696;10.622;2022-11-14T18:21:28;12.30;99.90
40638;DHT22;26336;44.696;10.622;2022-11-14T18:29:14;12.30;99.90
40638;DHT22;26336;44.696;10.622;2022-11-14T18:32:38;12.20;99.90
40638;DHT22;26336;44.696;10.622;2022-11-14T18:36:12;12.10;99.90
40638;DHT22;26336;44.696;10.622;2022-11-14T18:39:34;12.10;99.90
40638;DHT22;26336;44.696;10.622;2022-11-14T18:42:57;12.10;99.90
40638;DHT22;26336;44.696;10.622;2022-11-14T18:46:20;12.00;99.90
40638;DHT22;26336;44.696;10.622;2022-11-14T18:49:43;12.00;99.90
40638;DHT22;26336;44.696;10.622;2022-11-14T18:53:07;12.00;99.90
40638;DHT22;26336;44.696;10.622;2022-11-14T18:56:29;11.90;99.90
40638;DHT22;26336;44.696;10.622;2022-11-14T18:59:52;11.90;99.90
40638;DHT22;26336;44.696;10.622;2022-11-14T19:03:14;11.80;99.90
40638;DHT22;26336;44.696;10.622;2022-11-14T19:06:39;11.80;99.90
40638;DHT22;26336;44.696;10.622;2022-11-14T19:10:02;11.80;99.90
40638;DHT22;26336;44.696;10.622;2022-11-14T19:13:27;11.80;99.90
40638;DHT22;26336;44.696;10.622;2022-11-14T19:16:53;11.80;99.90
40638;DHT22;26336;44.696;10.622;2022-11-14T19:20:15;11.60;99.90
40638;DHT22;26336;44.696;10.622;2022-11-14T19:23:38;11.60;99.90
40638;DHT22;26336;44.696;10.622;2022-11-14T19:27:01;11.60;99.90
40638;DHT22;26336;44.696;10.622;2022-11-14T19:30:25;11.60;99.90
40638;DHT22;26336;44.696;10.622;2022-11-14T19:33:48;11.60;99.90
40638;DHT22;26336;44.696;10.622;2022-11-14T19:37:11;11.50;99.90
40638;DHT22;26336;44.696;10.622;2022-11-14T19:40:35;11.60;99.90
40638;DHT22;26336;44.696;10.622;2022-11-14T19:43:58;11.60;99.90
40638;DHT22;26336;44.696;10.622;2022-11-14T19:47:22;11.60;99.90
40638;DHT22;26336;44.696;10.622;2022-11-14T19:50:45;11.50;99.90
40638;DHT22;26336;44.696;10.622;2022-11-14T19:54:08;11.50;99.90
40638;DHT22;26336;44.696;10.622;2022-11-14T19:57:33;11.50;99.90
40638;DHT22;26336;44.696;10.622;2022-11-14T20:00:59;11.50;99.90
40638;DHT22;26336;44.696;10.622;2022-11-14T20:04:22;11.50;99.90
40638;DHT22;26336;44.696;10.622;2022-11-14T20:07:45;11.50;99.90
40638;DHT22;26336;44.696;10.622;2022-11-14T20:11:09;11.50;99.90
40638;DHT22;26336;44.696;10.622;2022-11-14T20:14:31;11.50;99.90
40638;DHT22;26336;44.696;10.622;2022-11-14T20:17:54;11.40;99.90
40638;DHT22;26336;44.696;10.622;2022-11-14T20:21:18;11.40;99.90
40638;DHT22;26336;44.696;10.622;2022-11-14T20:24:41;11.40;99.90
40638;DHT22;26336;44.696;10.622;2022-11-14T20:28:03;11.40;99.90
40638;DHT22;26336;44.696;10.622;2022-11-14T20:31:36;11.40;99.90
40638;DHT22;26336;44.696;10.622;2022-11-14T20:34:59;11.40;99.90
40638;DHT22;26336;44.696;10.622;2022-11-14T20:38:21;11.40;99.90
40638;DHT22;26336;44.696;10.622;2022-11-14T20:41:43;11.40;99.90
40638;DHT22;26336;44.696;10.622;2022-11-14T20:45:05;11.40;99.90
40638;DHT22;26336;44.696;10.622;2022-11-14T20:48:29;11.40;99.90
40638;DHT22;26336;44.696;10.622;2022-11-14T20:51:52;11.40;99.90
40638;DHT22;26336;44.696;10.622;2022-11-14T20:55:15;11.30;99.90
40638;DHT22;26336;44.696;10.622;2022-11-14T20:58:38;11.40;99.90
40638;DHT22;26336;44.696;10.622;2022-11-14T21:02:01;11.30;99.90
40638;DHT22;26336;44.696;10.622;2022-11-14T21:05:23;11.30;99.90
40638;DHT22;26336;44.696;10.622;2022-11-14T21:08:46;11.30;99.90
40638;DHT22;26336;44.696;10.622;2022-11-14T21:12:08;11.20;99.90
40638;DHT22;26336;44.696;10.622;2022-11-14T21:15:32;11.20;99.90
40638;DHT22;26336;44.696;10.622;2022-11-14T21:18:55;11.20;99.90
40638;DHT22;26336;44.696;10.622;2022-11-14T21:22:20;11.20;99.90
40638;DHT22;26336;44.696;10.622;2022-11-14T21:25:42;11.20;99.90
40638;DHT22;26336;44.696;10.622;2022-11-14T21:29:06;11.20;99.90
40638;DHT22;26336;44.696;10.622;2022-11-14T21:32:30;11.20;99.90
40638;DHT22;26336;44.696;10.622;2022-11-14T21:35:52;11.20;99.90
40638;DHT22;26336;44.696;10.622;2022-11-14T21:39:14;11.10;99.90
40638;DHT22;26336;44.696;10.622;2022-11-14T21:42:39;11.10;99.90
40638;DHT22;26336;44.696;10.622;2022-11-14T21:46:03;11.10;99.90
40638;DHT22;26336;44.696;10.622;2022-11-14T21:49:25;11.10;99.90
40638;DHT22;26336;44.696;10.622;2022-11-14T21:52:48;11.10;99.90
40638;DHT22;26336;44.696;10.622;2022-11-14T21:59:36;11.10;99.90
40638;DHT22;26336;44.696;10.622;2022-11-14T22:02:58;11.10;99.90
40638;DHT22;26336;44.696;10.622;2022-11-14T22:06:46;11.10;99.90
40638;DHT22;26336;44.696;10.622;2022-11-14T22:10:09;11.10;99.90
40638;DHT22;26336;44.696;10.622;2022-11-14T22:13:31;11.10;99.90
40638;DHT22;26336;44.696;10.622;2022-11-14T22:16:54;11.00;99.90
40638;DHT22;26336;44.696;10.622;2022-11-14T22:20:16;11.00;99.90
40638;DHT22;26336;44.696;10.622;2022-11-14T22:23:39;11.00;99.90
40638;DHT22;26336;44.696;10.622;2022-11-14T22:27:01;11.00;99.90
40638;DHT22;26336;44.696;10.622;2022-11-14T22:30:23;11.00;99.90
40638;DHT22;26336;44.696;10.622;2022-11-14T22:33:46;11.00;99.90
40638;DHT22;26336;44.696;10.622;2022-11-14T22:37:09;11.00;99.90
40638;DHT22;26336;44.696;10.622;2022-11-14T22:40:31;10.90;99.90
40638;DHT22;26336;44.696;10.622;2022-11-14T22:43:53;10.90;99.90
40638;DHT22;26336;44.696;10.622;2022-11-14T22:47:16;10.90;99.90
40638;DHT22;26336;44.696;10.622;2022-11-14T22:50:38;10.90;99.90
40638;DHT22;26336;44.696;10.622;2022-11-14T22:54:00;10.80;99.90
40638;DHT22;26336;44.696;10.622;2022-11-14T22:57:23;10.80;99.90
40638;DHT22;26336;44.696;10.622;2022-11-14T23:00:45;10.80;99.90
40638;DHT22;26336;44.696;10.622;2022-11-14T23:04:08;10.80;99.90
40638;DHT22;26336;44.696;10.622;2022-11-14T23:07:30;10.80;99.90
40638;DHT22;26336;44.696;10.622;2022-11-14T23:10:53;10.60;99.90
40638;DHT22;26336;44.696;10.622;2022-11-14T23:14:15;10.60;99.90
40638;DHT22;26336;44.696;10.622;2022-11-14T23:17:38;10.60;99.90
40638;DHT22;26336;44.696;10.622;2022-11-14T23:21:08;10.60;99.90
40638;DHT22;26336;44.696;10.622;2022-11-14T23:24:30;10.60;99.90